Time;durP1;ratioP1;P1;durP2;ratioP2;P2;SDS_P1;SDS_P2;PMS_P1;PMS_P2;Temp;Humidity;BMP_temperature;BMP_pressure;BME280_temperature;BME280_humidity;BME280_pressure;Samples;Min_cycle;Max_cycle;Signal;HPM_P1;HPM_P2
2022/11/10 00:00:41;;;;;;;17.92;4.30;;;11.00;78.30;;;;;;5052563;28;20398;-76
2022/11/10 00:03:08;;;;;;;15.93;3.70;;;11.00;78.70;;;;;;5051921;28;20386;-77
2022/11/10 00:05:36;;;;;;;22.13;4.45;;;10.90;80.70;;;;;;5052133;28;20381;-76
2022/11/10 00:08:05;;;;;;;16.10;3.88;;;10.90;81.70;;;;;;5051427;28;21560;-77
2022/11/10 00:10:31;;;;;;;17.77;4.13;;;10.80;83.20;;;;;;5051941;28;20423;-77
2022/11/10 00:13:01;;;;;;;12.38;3.90;;;10.80;83.60;;;;;;5051986;28;20400;-77
2022/11/10 00:18:11;;;;;;;12.90;3.60;;;10.60;86.40;;;;;;5057652;28;20396;-76
2022/11/10 00:20:37;;;;;;;18.70;4.03;;;10.50;88.00;;;;;;5054735;28;20382;-77
2022/11/10 00:23:03;;;;;;;16.42;4.00;;;10.60;87.50;;;;;;5058779;23;20439;-71
2022/11/10 00:25:30;;;;;;;17.53;3.73;;;10.70;87.00;;;;;;5026721;28;20387;-71
2022/11/10 00:27:58;;;;;;;13.57;3.40;;;10.70;86.00;;;;;;5043665;28;20375;-72
2022/11/10 00:30:24;;;;;;;15.73;3.65;;;10.70;85.90;;;;;;5037513;28;20383;-69
2022/11/10 00:32:50;;;;;;;21.65;4.00;;;10.60;87.00;;;;;;5032365;28;20382;-71
2022/11/10 00:35:15;;;;;;;19.67;3.80;;;10.60;87.50;;;;;;5031996;28;20405;-71
2022/11/10 00:37:41;;;;;;;10.13;3.40;;;10.60;87.70;;;;;;5032118;28;20387;-71
2022/11/10 00:40:07;;;;;;;18.07;4.77;;;10.60;87.70;;;;;;5014186;28;20445;-71
2022/11/10 00:42:32;;;;;;;14.40;3.60;;;10.70;87.20;;;;;;5031501;28;20387;-71
2022/11/10 00:44:58;;;;;;;15.30;3.80;;;10.70;87.80;;;;;;5018721;28;20467;-72
2022/11/10 00:47:23;;;;;;;13.07;3.60;;;10.60;87.70;;;;;;5038738;28;20383;-71
2022/11/10 00:49:49;;;;;;;17.70;3.63;;;10.80;85.70;;;;;;5032180;28;20493;-70
2022/11/10 00:52:15;;;;;;;19.08;3.90;;;10.60;87.40;;;;;;5031555;28;20425;-69
2022/11/10 00:54:40;;;;;;;20.15;3.70;;;10.50;89.40;;;;;;5031719;28;20462;-71
2022/11/10 00:57:06;;;;;;;11.87;4.20;;;10.60;89.10;;;;;;5031693;28;20386;-72
2022/11/10 00:59:31;;;;;;;13.30;3.30;;;10.60;89.00;;;;;;5031489;28;20915;-69
2022/11/10 01:01:57;;;;;;;22.60;3.57;;;10.60;88.80;;;;;;5031729;28;20752;-71
2022/11/10 01:04:22;;;;;;;20.87;4.03;;;10.60;88.40;;;;;;5030578;28;20410;-71
2022/11/10 01:06:48;;;;;;;17.90;3.40;;;10.50;89.60;;;;;;5031449;28;20474;-70
2022/11/10 01:09:14;;;;;;;17.45;3.70;;;10.50;89.50;;;;;;5031474;28;20949;-70
2022/11/10 01:11:39;;;;;;;16.15;3.90;;;10.50;90.30;;;;;;5031431;28;20379;-70
2022/11/10 01:14:05;;;;;;;15.50;3.90;;;10.50;91.70;;;;;;5031401;28;20483;-71
2022/11/10 01:16:31;;;;;;;20.30;3.77;;;10.60;89.80;;;;;;5031352;28;20387;-70
2022/11/10 01:18:59;;;;;;;12.45;3.63;;;10.50;90.00;;;;;;5031323;28;20383;-71
2022/11/10 01:21:26;;;;;;;14.95;3.30;;;10.50;91.10;;;;;;5013768;28;20402;-70
2022/11/10 01:23:51;;;;;;;12.70;2.90;;;10.60;89.50;;;;;;5030953;28;20414;-71
2022/11/10 01:26:17;;;;;;;16.00;3.67;;;10.50;90.40;;;;;;5031055;28;20461;-71
2022/11/10 01:28:43;;;;;;;11.70;3.40;;;10.50;91.80;;;;;;5031391;28;20729;-70
2022/11/10 01:31:11;;;;;;;14.82;4.13;;;10.40;92.50;;;;;;5031054;28;20391;-70
2022/11/10 01:33:37;;;;;;;15.95;3.90;;;10.40;93.30;;;;;;5013484;28;20444;-72
2022/11/10 01:36:05;;;;;;;16.57;3.50;;;10.40;93.90;;;;;;5030960;28;20779;-71
2022/11/10 01:38:34;;;;;;;15.52;3.50;;;10.40;93.20;;;;;;5031473;28;20391;-70
2022/11/10 01:41:00;;;;;;;17.00;3.63;;;10.30;94.40;;;;;;5014254;28;20383;-69
2022/11/10 01:43:27;;;;;;;15.30;3.53;;;10.30;95.00;;;;;;5014694;28;20953;-71
2022/11/10 01:46:08;;;;;;;19.00;3.80;;;10.30;96.70;;;;;;5032931;28;20422;-71
2022/11/10 01:48:36;;;;;;;20.53;4.27;;;10.40;94.90;;;;;;5039189;28;20477;-71
2022/11/10 01:51:08;;;;;;;15.35;4.13;;;10.30;95.00;;;;;;5037422;28;20962;-71
2022/11/10 01:53:39;;;;;;;13.88;3.70;;;10.30;95.60;;;;;;5013780;28;20394;-71
2022/11/10 01:56:08;;;;;;;20.75;3.83;;;10.30;96.60;;;;;;5031493;28;20489;-69
2022/11/10 01:58:38;;;;;;;15.38;4.20;;;10.20;96.80;;;;;;5031880;28;20383;-71
2022/11/10 02:01:06;;;;;;;20.98;4.03;;;10.30;97.00;;;;;;5043999;28;20390;-70
2022/11/10 02:03:45;;;;;;;16.70;4.10;;;10.30;95.50;;;;;;5042280;28;20429;-70
2022/11/10 02:06:11;;;;;;;14.30;4.00;;;10.20;97.30;;;;;;5023073;28;20383;-70
2022/11/10 02:08:37;;;;;;;16.23;3.80;;;10.20;97.30;;;;;;5033150;28;20410;-71
2022/11/10 02:11:03;;;;;;;14.35;3.78;;;10.20;97.40;;;;;;5030871;28;20399;-69
2022/11/10 02:13:29;;;;;;;25.25;4.00;;;10.20;98.00;;;;;;5012435;28;20774;-71
2022/11/10 02:15:55;;;;;;;18.45;4.38;;;10.20;98.00;;;;;;5032777;28;20383;-71
2022/11/10 02:18:20;;;;;;;20.55;3.92;;;10.30;97.00;;;;;;5039159;28;20403;-71
2022/11/10 02:20:46;;;;;;;16.50;3.50;;;10.40;95.00;;;;;;5043520;28;20466;-72
2022/11/10 02:23:33;;;;;;;17.63;3.73;;;10.40;93.90;;;;;;5034082;28;20415;-72
2022/11/10 02:26:00;;;;;;;14.93;4.25;;;10.40;94.90;;;;;;5020213;28;20434;-70
2022/11/10 02:28:26;;;;;;;19.58;3.85;;;10.40;95.30;;;;;;5034683;28;20430;-71
2022/11/10 02:30:52;;;;;;;20.13;3.90;;;10.30;93.90;;;;;;5034868;28;20422;-70
2022/11/10 02:33:18;;;;;;;16.38;3.58;;;10.20;95.90;;;;;;5053708;28;20393;-70
2022/11/10 02:35:44;;;;;;;19.80;3.80;;;10.20;97.20;;;;;;5043118;28;20422;-71
2022/11/10 02:38:10;;;;;;;17.17;3.95;;;10.20;96.80;;;;;;5034841;28;20414;-72
2022/11/10 02:40:36;;;;;;;15.68;3.75;;;10.20;96.90;;;;;;5035544;28;20396;-71
2022/11/10 02:43:03;;;;;;;19.17;3.70;;;10.20;96.70;;;;;;5036026;28;20407;-72
2022/11/10 02:45:28;;;;;;;17.20;3.40;;;10.20;96.70;;;;;;5022123;28;21003;-72
2022/11/10 02:47:54;;;;;;;15.37;4.00;;;10.30;95.80;;;;;;5034867;28;20390;-70
2022/11/10 02:50:19;;;;;;;20.00;4.10;;;10.20;96.50;;;;;;5035887;28;20466;-71
2022/11/10 02:52:45;;;;;;;21.53;4.60;;;10.30;97.30;;;;;;5017636;28;20388;-71
2022/11/10 02:55:10;;;;;;;18.30;3.50;;;10.20;97.20;;;;;;5035223;28;20405;-73
2022/11/10 02:57:37;;;;;;;15.55;4.00;;;10.20;98.40;;;;;;5035607;28;20383;-71
2022/11/10 03:00:04;;;;;;;18.33;3.90;;;10.30;98.40;;;;;;5016701;28;20430;-70
2022/11/10 03:02:30;;;;;;;16.25;3.50;;;10.30;96.40;;;;;;5033826;28;20478;-71
2022/11/10 03:04:55;;;;;;;10.18;3.40;;;10.40;95.10;;;;;;5034816;28;20499;-71
2022/11/10 03:07:21;;;;;;;19.13;4.35;;;10.40;93.60;;;;;;5034665;28;20441;-72
2022/11/10 03:09:46;;;;;;;18.15;3.63;;;10.40;93.80;;;;;;5034049;28;20375;-70
2022/11/10 03:12:12;;;;;;;15.70;4.00;;;10.30;94.50;;;;;;5033956;28;20454;-72
2022/11/10 03:14:37;;;;;;;23.80;4.10;;;10.40;94.50;;;;;;5036643;28;20386;-72
2022/11/10 03:17:03;;;;;;;15.73;3.73;;;10.40;93.70;;;;;;5036958;28;20969;-72
2022/11/10 03:19:28;;;;;;;17.33;3.90;;;10.40;95.00;;;;;;5035738;28;20465;-70
2022/11/10 03:21:54;;;;;;;14.67;3.83;;;10.30;95.90;;;;;;5033617;28;20379;-70
2022/11/10 03:24:19;;;;;;;21.30;4.05;;;10.40;95.40;;;;;;5029480;28;20776;-71
2022/11/10 03:26:45;;;;;;;25.02;3.78;;;10.50;93.40;;;;;;5032959;28;20398;-71
2022/11/10 03:29:10;;;;;;;19.27;3.53;;;10.50;91.80;;;;;;5035203;28;20380;-71
2022/11/10 03:31:36;;;;;;;19.43;3.57;;;10.50;91.80;;;;;;5035364;28;20391;-73
2022/11/10 03:34:01;;;;;;;17.73;3.77;;;10.50;91.60;;;;;;5036099;28;20415;-72
2022/11/10 03:36:27;;;;;;;19.20;3.50;;;10.50;92.00;;;;;;5034220;28;20818;-70
2022/11/10 03:38:52;;;;;;;22.65;3.88;;;10.60;91.50;;;;;;5034018;28;20469;-70
2022/11/10 03:41:18;;;;;;;18.13;3.50;;;10.50;91.40;;;;;;5033395;28;20795;-70
2022/11/10 03:43:44;;;;;;;18.63;4.18;;;10.60;91.70;;;;;;5034485;28;20410;-70
2022/11/10 03:46:09;;;;;;;17.13;4.07;;;10.60;91.00;;;;;;5039978;28;20395;-72
2022/11/10 03:48:35;;;;;;;18.53;3.63;;;10.50;91.70;;;;;;5040117;28;20867;-72
2022/11/10 03:51:00;;;;;;;18.13;4.30;;;10.50;91.90;;;;;;5034956;28;20740;-71
2022/11/10 03:53:26;;;;;;;15.10;4.50;;;10.50;92.70;;;;;;5032183;28;20478;-72
2022/11/10 03:55:51;;;;;;;19.33;3.80;;;10.40;93.40;;;;;;5033492;28;20383;-71
2022/11/10 03:58:17;;;;;;;17.93;4.00;;;10.40;92.30;;;;;;5049022;28;20471;-70
2022/11/10 04:00:42;;;;;;;19.50;4.10;;;10.30;93.90;;;;;;5041634;28;20453;-72
2022/11/10 04:03:08;;;;;;;19.27;4.18;;;10.20;95.80;;;;;;5038123;28;20441;-72
2022/11/10 04:11:02;;;;;;;21.08;4.00;;;10.00;99.30;;;;;;5032862;28;20386;-71
2022/11/10 04:16:12;;;;;;;26.63;4.13;;;10.10;99.90;;;;;;5033248;28;20426;-70
2022/11/10 04:18:38;;;;;;;20.70;4.70;;;10.10;99.90;;;;;;5032614;28;20387;-70
2022/11/10 04:21:03;;;;;;;22.50;4.60;;;10.00;99.90;;;;;;5032714;28;20859;-71
2022/11/10 04:23:35;;;;;;;20.53;4.00;;;10.00;99.90;;;;;;5032619;28;20461;-73
2022/11/10 04:28:49;;;;;;;15.10;4.20;;;10.00;99.90;;;;;;5033452;28;20374;-72
2022/11/10 04:31:16;;;;;;;22.58;4.10;;;10.00;99.90;;;;;;5034353;28;20441;-69
2022/11/10 04:33:43;;;;;;;18.95;4.30;;;9.90;99.90;;;;;;5019127;28;20466;-72
2022/11/10 04:36:11;;;;;;;19.67;4.20;;;9.90;99.90;;;;;;5033221;28;20398;-71
2022/11/10 04:38:37;;;;;;;17.33;4.40;;;9.90;99.90;;;;;;5036885;28;20433;-71
2022/11/10 04:41:04;;;;;;;18.38;3.88;;;10.00;99.90;;;;;;5040309;28;20838;-71
2022/11/10 04:43:29;;;;;;;18.80;4.20;;;9.90;99.90;;;;;;5032527;28;20403;-71
2022/11/10 04:45:56;;;;;;;21.58;3.85;;;10.00;99.90;;;;;;5014877;28;20391;-70
2022/11/10 04:48:21;;;;;;;23.08;4.30;;;9.90;99.90;;;;;;5032592;28;20406;-72
2022/11/10 04:50:47;;;;;;;19.13;3.97;;;9.90;99.90;;;;;;5033070;28;20710;-73
2022/11/10 04:53:13;;;;;;;17.17;3.67;;;9.90;99.90;;;;;;5031769;28;20379;-70
2022/11/10 04:55:40;;;;;;;29.20;4.90;;;9.90;99.90;;;;;;5031884;28;20410;-72
2022/11/10 04:58:06;;;;;;;24.70;4.30;;;10.00;99.90;;;;;;5032904;28;20382;-70
2022/11/10 05:00:32;;;;;;;25.90;4.67;;;10.00;99.90;;;;;;5032915;28;20379;-73
2022/11/10 05:03:03;;;;;;;17.13;4.57;;;9.90;99.90;;;;;;5032428;28;20379;-71
2022/11/10 05:05:28;;;;;;;22.50;4.55;;;9.90;99.90;;;;;;5032290;28;20399;-71
2022/11/10 05:07:54;;;;;;;22.88;4.20;;;9.90;99.90;;;;;;5036759;28;20394;-71
2022/11/10 05:10:20;;;;;;;24.48;4.95;;;10.00;99.90;;;;;;5041341;28;20391;-71
2022/11/10 05:12:45;;;;;;;24.20;4.40;;;10.00;99.90;;;;;;5032568;28;20880;-70
2022/11/10 05:15:11;;;;;;;20.52;4.47;;;10.00;99.90;;;;;;5032110;28;20453;-72
2022/11/10 05:17:36;;;;;;;13.55;4.20;;;10.00;99.90;;;;;;5031868;28;20425;-72
2022/11/10 05:20:03;;;;;;;17.30;4.30;;;10.00;99.90;;;;;;5031979;28;20398;-70
2022/11/10 05:22:28;;;;;;;26.38;4.70;;;9.90;99.90;;;;;;5014614;28;20391;-71
2022/11/10 05:24:54;;;;;;;22.47;4.83;;;10.00;99.90;;;;;;5032048;28;20402;-70
2022/11/10 05:27:20;;;;;;;21.73;4.53;;;10.10;99.90;;;;;;5032630;28;20393;-70
2022/11/10 05:29:45;;;;;;;22.20;4.67;;;10.10;99.90;;;;;;5032550;28;20518;-71
2022/11/10 05:32:11;;;;;;;24.20;4.43;;;10.10;99.90;;;;;;5031412;28;20422;-71
2022/11/10 05:34:36;;;;;;;22.30;4.60;;;10.20;99.90;;;;;;5014289;28;20387;-71
2022/11/10 05:37:02;;;;;;;26.07;4.40;;;10.10;99.90;;;;;;5031464;28;20463;-69
2022/11/10 05:39:27;;;;;;;24.48;4.75;;;10.10;99.90;;;;;;5013493;28;20391;-70
2022/11/10 05:41:53;;;;;;;29.88;4.70;;;10.00;99.90;;;;;;5030950;28;20395;-70
2022/11/10 05:44:18;;;;;;;22.53;4.10;;;10.00;99.90;;;;;;5030868;28;20414;-71
2022/11/10 05:46:44;;;;;;;34.40;4.60;;;10.10;99.90;;;;;;5031972;28;20390;-71
2022/11/10 05:49:09;;;;;;;21.20;4.90;;;10.00;99.90;;;;;;5031338;28;20409;-71
2022/11/10 05:51:35;;;;;;;23.13;4.83;;;10.00;99.90;;;;;;5034102;28;20387;-73
2022/11/10 05:54:01;;;;;;;21.20;4.00;;;10.00;99.90;;;;;;5035162;28;20445;-71
2022/11/10 05:56:26;;;;;;;20.98;4.07;;;10.00;99.90;;;;;;5036324;28;20395;-70
2022/11/10 05:58:52;;;;;;;15.48;3.30;;;10.00;99.90;;;;;;5017694;28;20390;-71
2022/11/10 06:01:17;;;;;;;16.90;4.65;;;10.00;99.90;;;;;;5047138;28;20386;-71
2022/11/10 06:03:43;;;;;;;21.50;4.60;;;9.90;99.90;;;;;;5049553;28;20411;-71
2022/11/10 06:06:08;;;;;;;23.27;4.40;;;9.80;99.90;;;;;;5045047;28;20418;-72
2022/11/10 06:08:34;;;;;;;22.27;4.53;;;9.80;99.90;;;;;;5043401;28;20418;-72
2022/11/10 06:10:59;;;;;;;25.10;4.40;;;9.80;99.90;;;;;;5035620;28;20391;-71
2022/11/10 06:13:25;;;;;;;24.13;5.38;;;9.80;99.90;;;;;;5035941;28;20890;-71
2022/11/10 06:15:50;;;;;;;21.55;4.30;;;9.80;99.90;;;;;;5035828;28;20577;-71
2022/11/10 06:18:16;;;;;;;17.33;3.72;;;9.80;99.90;;;;;;5035697;28;20401;-71
2022/11/10 06:20:42;;;;;;;22.35;4.30;;;9.70;99.90;;;;;;5034973;28;20497;-71
2022/11/10 06:23:12;;;;;;;27.13;4.30;;;9.60;99.90;;;;;;5022542;28;20395;-71
2022/11/10 06:25:39;;;;;;;14.90;3.70;;;9.70;99.90;;;;;;5042453;28;20523;-72
2022/11/10 06:28:06;;;;;;;22.58;4.38;;;9.70;99.90;;;;;;5040972;28;20411;-72
2022/11/10 06:30:34;;;;;;;19.90;4.40;;;9.70;99.90;;;;;;5041660;28;20409;-70
2022/11/10 06:33:00;;;;;;;23.23;4.40;;;9.70;99.90;;;;;;5041533;28;20387;-72
2022/11/10 06:35:27;;;;;;;21.20;4.13;;;9.80;99.90;;;;;;5042452;28;20414;-74
2022/11/10 06:38:01;;;;;;;16.15;4.38;;;9.80;99.90;;;;;;5042026;28;20397;-71
2022/11/10 06:40:26;;;;;;;22.70;4.63;;;9.70;99.90;;;;;;5043215;28;20390;-74
2022/11/10 06:42:52;;;;;;;16.93;3.93;;;9.60;99.90;;;;;;5042476;28;20868;-74
2022/11/10 06:45:17;;;;;;;19.40;4.10;;;9.60;99.90;;;;;;5042683;28;20501;-73
2022/11/10 06:47:43;;;;;;;25.10;4.53;;;9.60;99.90;;;;;;5042403;28;20448;-71
2022/11/10 06:50:09;;;;;;;27.00;5.20;;;9.70;99.90;;;;;;5043270;28;20462;-71
2022/11/10 06:52:35;;;;;;;17.17;4.47;;;9.70;99.90;;;;;;5043563;28;20387;-72
2022/11/10 06:55:00;;;;;;;20.15;4.20;;;9.70;99.90;;;;;;5045093;28;20387;-74
2022/11/10 06:57:26;;;;;;;22.50;5.10;;;9.60;99.90;;;;;;5047759;28;20441;-74
2022/11/10 06:59:52;;;;;;;19.05;4.60;;;9.60;99.90;;;;;;5042845;28;20453;-71
2022/11/10 07:02:17;;;;;;;23.30;5.40;;;9.70;99.90;;;;;;5042441;28;20386;-72
2022/11/10 07:04:43;;;;;;;20.80;4.10;;;9.80;99.90;;;;;;5042766;28;20907;-71
2022/11/10 07:07:09;;;;;;;14.57;4.00;;;9.80;99.90;;;;;;5041719;28;20975;-72
2022/11/10 07:09:35;;;;;;;21.35;4.30;;;9.80;99.90;;;;;;5042539;28;20864;-72
2022/11/10 07:12:01;;;;;;;27.35;4.70;;;9.80;99.90;;;;;;5043661;28;20439;-74
2022/11/10 07:14:26;;;;;;;28.73;4.65;;;10.00;99.90;;;;;;5043835;28;20406;-72
2022/11/10 07:16:52;;;;;;;21.92;4.63;;;10.00;99.90;;;;;;5046015;28;20387;-71
2022/11/10 07:19:17;;;;;;;24.43;4.70;;;10.00;99.90;;;;;;5048951;28;20387;-71
2022/11/10 07:21:43;;;;;;;22.57;5.00;;;10.00;99.90;;;;;;5051110;28;20379;-74
2022/11/10 07:24:08;;;;;;;19.17;4.80;;;10.00;99.90;;;;;;5042051;28;20422;-73
2022/11/10 07:26:34;;;;;;;30.20;4.72;;;9.90;99.90;;;;;;5042573;28;20391;-73
2022/11/10 07:28:59;;;;;;;24.83;5.55;;;9.90;99.90;;;;;;5042919;28;20383;-72
2022/11/10 07:31:25;;;;;;;20.60;4.40;;;9.90;99.90;;;;;;5042442;28;20391;-74
2022/11/10 07:33:51;;;;;;;21.17;4.90;;;9.90;99.90;;;;;;5041912;28;20412;-72
2022/11/10 07:36:16;;;;;;;21.42;5.03;;;9.90;99.90;;;;;;5023905;28;20391;-72
2022/11/10 07:38:42;;;;;;;21.70;5.32;;;9.90;99.90;;;;;;5043180;28;20463;-73
2022/11/10 07:41:08;;;;;;;18.98;4.97;;;10.00;99.90;;;;;;5052264;28;20736;-71
2022/11/10 07:43:33;;;;;;;23.40;5.40;;;10.00;99.90;;;;;;5051738;28;20403;-71
2022/11/10 07:45:59;;;;;;;25.00;5.50;;;10.00;99.90;;;;;;5048286;28;20399;-73
2022/11/10 07:48:25;;;;;;;19.52;5.35;;;10.00;99.90;;;;;;5041506;28;20394;-74
2022/11/10 07:50:50;;;;;;;26.73;5.97;;;10.00;99.90;;;;;;5041160;28;20383;-72
2022/11/10 07:53:21;;;;;;;21.73;5.90;;;10.00;99.90;;;;;;5024344;28;20879;-73
2022/11/10 07:55:47;;;;;;;27.40;9.77;;;10.00;99.90;;;;;;5023700;28;20406;-72
2022/11/10 07:58:15;;;;;;;34.80;7.53;;;9.90;99.90;;;;;;5041023;28;20391;-73
2022/11/10 08:00:41;;;;;;;24.55;6.97;;;9.90;99.90;;;;;;5042151;28;20892;-72
2022/11/10 08:03:11;;;;;;;23.88;6.53;;;10.00;99.90;;;;;;5042362;28;20395;-73
2022/11/10 08:05:37;;;;;;;24.30;7.03;;;9.90;99.90;;;;;;5043091;28;20946;-72
2022/11/10 08:08:03;;;;;;;29.55;7.20;;;9.90;99.90;;;;;;5043342;28;20394;-72
2022/11/10 08:10:30;;;;;;;34.72;8.55;;;10.00;99.90;;;;;;5043236;28;20451;-73
2022/11/10 08:12:57;;;;;;;26.45;8.00;;;10.00;99.90;;;;;;5043639;28;20387;-74
2022/11/10 08:15:25;;;;;;;32.70;8.57;;;10.10;99.90;;;;;;5044568;28;20922;-73
2022/11/10 08:17:51;;;;;;;23.60;6.50;;;10.30;99.90;;;;;;5042017;28;20903;-72
2022/11/10 08:20:17;;;;;;;29.20;6.80;;;10.30;99.90;;;;;;5040308;28;20383;-72
2022/11/10 08:22:43;;;;;;;21.88;6.20;;;10.40;99.70;;;;;;5041392;28;20391;-73
2022/11/10 08:25:09;;;;;;;28.92;6.68;;;10.50;98.70;;;;;;5023869;28;20407;-72
2022/11/10 08:27:35;;;;;;;29.85;6.57;;;10.60;95.90;;;;;;5040674;28;20403;-74
2022/11/10 08:30:00;;;;;;;24.30;6.60;;;10.70;95.10;;;;;;5041042;28;20598;-74
2022/11/10 08:32:26;;;;;;;26.23;6.40;;;10.70;95.10;;;;;;5042931;28;20379;-73
2022/11/10 08:34:51;;;;;;;24.97;6.20;;;10.80;94.10;;;;;;5045220;28;20379;-72
2022/11/10 08:37:17;;;;;;;22.73;5.40;;;11.00;92.20;;;;;;5045479;28;20398;-72
2022/11/10 08:39:42;;;;;;;24.60;5.53;;;11.10;87.30;;;;;;5048036;28;20741;-73
2022/11/10 08:42:08;;;;;;;36.30;6.60;;;11.20;88.00;;;;;;5045463;28;20443;-73
2022/11/10 08:44:33;;;;;;;25.37;5.17;;;11.30;85.20;;;;;;5044326;28;20904;-70
2022/11/10 08:46:59;;;;;;;27.53;6.13;;;11.50;84.40;;;;;;5027022;28;20405;-73
2022/11/10 08:49:24;;;;;;;23.80;5.00;;;11.60;81.60;;;;;;5042609;28;20387;-73
2022/11/10 08:51:50;;;;;;;20.73;5.17;;;11.60;79.80;;;;;;5043209;28;20503;-73
2022/11/10 08:54:15;;;;;;;20.80;5.35;;;11.70;79.20;;;;;;5043500;28;20459;-71
2022/11/10 08:56:41;;;;;;;17.50;4.70;;;11.90;77.70;;;;;;5043528;28;20394;-71
2022/11/10 08:59:07;;;;;;;20.73;5.20;;;12.20;76.50;;;;;;5042371;28;20383;-72
2022/11/10 09:01:32;;;;;;;21.53;5.63;;;12.60;69.10;;;;;;5042183;28;20395;-72
2022/11/10 09:03:58;;;;;;;15.30;4.50;;;13.00;64.50;;;;;;5041171;28;20446;-71
2022/11/10 09:06:23;;;;;;;14.98;4.82;;;13.50;60.20;;;;;;5040684;28;20399;-73
2022/11/10 09:08:49;;;;;;;20.42;4.78;;;14.00;53.70;;;;;;5040779;28;20387;-73
2022/11/10 09:11:14;;;;;;;16.87;5.10;;;13.80;53.70;;;;;;5022701;28;20417;-72
2022/11/10 09:13:40;;;;;;;21.33;4.40;;;13.70;54.60;;;;;;5043146;28;20472;-73
2022/11/10 09:16:05;;;;;;;22.00;4.80;;;13.50;55.60;;;;;;5043239;28;20749;-72
2022/11/10 09:18:31;;;;;;;19.77;5.10;;;13.30;57.20;;;;;;5042693;28;20387;-76
2022/11/10 09:20:57;;;;;;;18.30;4.70;;;13.20;58.70;;;;;;5044487;28;20752;-73
2022/11/10 09:23:23;;;;;;;27.67;5.50;;;13.20;60.50;;;;;;5029042;28;20811;-72
2022/11/10 09:25:53;;;;;;;19.63;5.50;;;13.60;57.70;;;;;;5041402;28;20394;-72
2022/11/10 09:28:20;;;;;;;22.10;5.20;;;14.10;53.10;;;;;;5041382;28;20406;-72
2022/11/10 09:30:50;;;;;;;28.02;5.45;;;14.10;51.90;;;;;;5041850;28;20383;-73
2022/11/10 09:33:16;;;;;;;22.33;4.78;;;13.90;52.80;;;;;;5041487;28;20406;-71
2022/11/10 09:35:42;;;;;;;17.05;4.60;;;13.70;55.10;;;;;;5041255;28;20391;-74
2022/11/10 09:38:08;;;;;;;16.98;4.75;;;13.70;55.20;;;;;;5041883;28;20868;-73
2022/11/10 09:40:39;;;;;;;25.73;5.38;;;13.60;55.70;;;;;;5040395;28;20388;-71
2022/11/10 09:43:14;;;;;;;19.87;4.37;;;13.60;56.00;;;;;;5041288;28;20387;-71
2022/11/10 09:45:43;;;;;;;25.13;5.30;;;13.60;56.90;;;;;;5041907;28;20515;-73
2022/11/10 09:48:21;;;;;;;21.02;4.97;;;13.70;55.90;;;;;;5040898;28;20814;-72
2022/11/10 09:51:09;;;;;;;25.77;5.60;;;13.60;56.70;;;;;;5041434;28;20409;-73
2022/11/10 09:53:57;;;;;;;30.10;5.80;;;13.60;57.10;;;;;;5040810;28;20792;-72
2022/11/10 09:56:34;;;;;;;25.53;4.83;;;13.70;55.90;;;;;;5041599;28;20865;-73
2022/11/10 09:59:01;;;;;;;17.25;4.18;;;13.70;56.70;;;;;;5040985;28;20391;-70
2022/11/10 10:01:48;;;;;;;22.30;4.35;;;13.70;57.10;;;;;;5043650;28;20395;-70
2022/11/10 10:04:30;;;;;;;16.98;4.50;;;13.70;57.20;;;;;;5044615;28;20407;-72
2022/11/10 10:07:13;;;;;;;21.80;4.35;;;13.80;56.80;;;;;;5041489;28;20391;-72
2022/11/10 10:09:57;;;;;;;19.70;4.90;;;13.80;55.40;;;;;;5040977;28;20383;-73
2022/11/10 10:12:53;;;;;;;19.58;4.30;;;13.80;56.30;;;;;;5040602;28;20470;-74
2022/11/10 10:15:37;;;;;;;19.00;3.92;;;13.90;55.40;;;;;;5041508;28;20387;-73
2022/11/10 10:18:36;;;;;;;26.40;4.75;;;14.00;53.90;;;;;;5040320;28;20375;-72
2022/11/10 10:21:39;;;;;;;19.83;3.80;;;13.90;55.00;;;;;;5040386;28;20474;-72
2022/11/10 10:24:08;;;;;;;21.83;4.75;;;14.00;54.50;;;;;;5041575;28;20407;-72
2022/11/10 10:26:38;;;;;;;21.50;4.53;;;14.10;55.10;;;;;;5041479;28;20458;-73
2022/11/10 10:29:15;;;;;;;19.98;4.25;;;14.10;54.70;;;;;;5024490;28;20395;-72
2022/11/10 10:31:43;;;;;;;27.10;4.50;;;14.10;54.00;;;;;;5044789;28;20433;-72
2022/11/10 10:34:15;;;;;;;26.30;4.80;;;14.20;53.50;;;;;;5044606;28;20398;-73
2022/11/10 10:36:41;;;;;;;16.75;3.60;;;14.30;52.80;;;;;;5046022;28;20390;-71
2022/11/10 10:39:15;;;;;;;21.50;4.57;;;14.30;51.80;;;;;;5047439;28;20394;-71
2022/11/10 10:41:43;;;;;;;23.70;4.10;;;14.20;52.70;;;;;;5030683;28;20395;-71
2022/11/10 10:44:18;;;;;;;20.55;4.30;;;14.30;50.90;;;;;;5046180;28;20904;-72
2022/11/10 10:46:55;;;;;;;21.80;4.57;;;14.50;52.20;;;;;;5045844;28;20743;-72
2022/11/10 10:49:21;;;;;;;18.10;4.15;;;14.50;50.80;;;;;;5048641;28;20383;-74
2022/11/10 10:51:47;;;;;;;19.93;3.70;;;14.50;49.00;;;;;;5049608;28;20383;-70
2022/11/10 10:54:24;;;;;;;20.70;4.05;;;14.60;49.80;;;;;;5053723;28;20405;-72
2022/11/10 10:57:00;;;;;;;14.95;3.42;;;14.50;50.50;;;;;;5052990;28;20382;-72
2022/11/10 10:59:26;;;;;;;21.30;4.30;;;14.60;50.00;;;;;;5053797;28;20390;-70
2022/11/10 11:01:53;;;;;;;18.83;4.00;;;14.60;48.90;;;;;;5053006;28;20395;-70
2022/11/10 11:04:26;;;;;;;20.33;4.40;;;14.70;48.30;;;;;;5055628;28;20507;-71
2022/11/10 11:07:19;;;;;;;22.58;3.88;;;14.70;48.00;;;;;;5055321;28;20733;-72
2022/11/10 11:09:45;;;;;;;20.92;4.47;;;14.80;46.50;;;;;;5054974;28;20393;-73
2022/11/10 11:12:24;;;;;;;24.08;4.10;;;14.80;47.00;;;;;;5054649;28;20390;-71
2022/11/10 11:14:49;;;;;;;17.63;3.90;;;14.80;45.80;;;;;;5054974;28;20398;-71
2022/11/10 11:17:21;;;;;;;25.63;4.30;;;14.80;45.20;;;;;;5056363;28;20363;-72
2022/11/10 11:19:50;;;;;;;18.20;3.53;;;14.80;44.80;;;;;;5037382;28;20387;-70
2022/11/10 11:22:37;;;;;;;13.47;3.30;;;14.90;43.50;;;;;;5053801;28;20379;-71
2022/11/10 11:25:36;;;;;;;23.13;4.00;;;15.00;43.30;;;;;;5050359;28;20411;-72
2022/11/10 11:28:33;;;;;;;14.38;3.90;;;15.00;43.20;;;;;;5050510;28;20398;-72
2022/11/10 11:31:22;;;;;;;23.60;3.88;;;15.10;44.00;;;;;;5035480;28;20447;-72
2022/11/10 11:33:48;;;;;;;22.85;4.05;;;15.10;43.20;;;;;;5050562;28;20410;-72
2022/11/10 11:36:36;;;;;;;16.90;3.50;;;15.10;41.70;;;;;;5034884;28;20771;-72
2022/11/10 11:39:11;;;;;;;19.05;3.90;;;15.10;41.40;;;;;;5051779;28;20387;-73
2022/11/10 11:41:49;;;;;;;17.55;3.35;;;15.00;40.40;;;;;;5050743;28;20379;-71
2022/11/10 11:44:32;;;;;;;19.80;3.58;;;15.10;40.70;;;;;;5049441;28;20403;-72
2022/11/10 11:47:44;;;;;;;15.77;3.47;;;15.20;39.40;;;;;;5048723;28;20667;-71
2022/11/10 11:50:29;;;;;;;14.18;2.90;;;15.20;38.70;;;;;;4975014;28;20393;-73
2022/11/10 11:53:19;;;;;;;16.35;3.00;;;15.20;38.50;;;;;;4991086;28;20399;-71
2022/11/10 11:56:03;;;;;;;15.23;3.38;;;15.20;37.40;;;;;;5016687;28;20447;-72
2022/11/10 11:58:44;;;;;;;16.35;3.33;;;15.20;37.90;;;;;;5049740;28;20379;-72
2022/11/10 12:01:27;;;;;;;12.63;2.35;;;15.30;37.70;;;;;;5049555;28;20379;-73
2022/11/10 12:04:10;;;;;;;16.23;3.25;;;15.30;37.60;;;;;;5049797;28;20501;-73
2022/11/10 12:06:49;;;;;;;14.73;3.03;;;15.30;36.20;;;;;;5049290;28;20428;-73
2022/11/10 12:09:38;;;;;;;11.75;2.55;;;15.30;36.30;;;;;;5050309;28;20380;-71
2022/11/10 12:12:45;;;;;;;10.75;2.60;;;15.30;35.50;;;;;;5050790;28;20395;-71
2022/11/10 12:15:29;;;;;;;15.05;2.75;;;15.40;34.40;;;;;;5050986;28;20402;-70
2022/11/10 12:18:23;;;;;;;11.02;2.10;;;15.40;34.10;;;;;;5049705;28;20379;-73
2022/11/10 12:21:10;;;;;;;13.15;2.70;;;15.40;33.60;;;;;;5049982;28;20450;-70
2022/11/10 12:23:54;;;;;;;18.40;3.05;;;15.50;33.60;;;;;;5056801;23;20567;-78
2022/11/10 12:26:47;;;;;;;13.75;2.90;;;15.50;33.10;;;;;;5019363;28;20399;-77
2022/11/10 12:29:26;;;;;;;11.35;2.58;;;15.60;32.60;;;;;;5036875;28;20446;-77
2022/11/10 12:31:57;;;;;;;12.80;2.40;;;15.60;32.70;;;;;;5038206;28;20425;-76
2022/11/10 12:34:26;;;;;;;18.38;3.13;;;15.60;32.10;;;;;;5045567;28;20380;-75
2022/11/10 12:36:52;;;;;;;12.10;2.60;;;15.60;31.80;;;;;;5046218;28;20391;-76
2022/11/10 12:39:20;;;;;;;11.63;3.20;;;15.70;31.60;;;;;;5020850;28;20398;-77
2022/11/10 12:41:51;;;;;;;11.70;2.47;;;15.60;31.40;;;;;;5041879;28;20386;-77
2022/11/10 12:44:32;;;;;;;13.32;2.65;;;15.60;31.70;;;;;;5044065;28;20407;-78
2022/11/10 12:47:04;;;;;;;12.90;2.83;;;15.50;32.00;;;;;;5045786;28;20473;-77
2022/11/10 12:49:36;;;;;;;17.30;2.60;;;15.60;31.40;;;;;;5043356;28;20391;-76
2022/11/10 12:52:15;;;;;;;12.73;3.10;;;15.60;31.00;;;;;;5037052;28;20379;-78
2022/11/10 12:54:43;;;;;;;13.90;2.80;;;15.50;32.10;;;;;;5040588;28;20492;-79
2022/11/10 12:57:26;;;;;;;10.18;2.45;;;15.60;31.20;;;;;;5029396;28;20403;-77
2022/11/10 13:00:17;;;;;;;9.40;2.45;;;15.60;30.60;;;;;;5047468;28;20406;-75
2022/11/10 13:02:45;;;;;;;6.70;1.90;;;15.70;30.90;;;;;;5036721;28;20456;-78